sensor_id;sensor_type;location;lat;lon;timestamp;pressure;altitude;pressure_sealevel;temperature
13570;BMP180;6856;51.460;7.158;2023-07-29T00:00:50;99649.00;;;25.00
13570;BMP180;6856;51.460;7.158;2023-07-29T00:03:23;99644.00;;;25.00
13570;BMP180;6856;51.460;7.158;2023-07-29T00:05:57;99643.00;;;25.00
13570;BMP180;6856;51.460;7.158;2023-07-29T00:08:31;99647.00;;;25.00
13570;BMP180;6856;51.460;7.158;2023-07-29T00:11:06;99646.00;;;24.90
13570;BMP180;6856;51.460;7.158;2023-07-29T00:13:40;99643.00;;;24.90
13570;BMP180;6856;51.460;7.158;2023-07-29T00:16:14;99638.00;;;24.80
13570;BMP180;6856;51.460;7.158;2023-07-29T00:18:49;99637.00;;;24.80
13570;BMP180;6856;51.460;7.158;2023-07-29T00:21:23;99633.00;;;24.70
13570;BMP180;6856;51.460;7.158;2023-07-29T00:23:58;99639.00;;;24.70
13570;BMP180;6856;51.460;7.158;2023-07-29T00:26:35;99631.00;;;24.70
13570;BMP180;6856;51.460;7.158;2023-07-29T00:29:09;99638.00;;;24.60
13570;BMP180;6856;51.460;7.158;2023-07-29T00:31:43;99635.00;;;24.60
13570;BMP180;6856;51.460;7.158;2023-07-29T00:34:17;99628.00;;;24.60
13570;BMP180;6856;51.460;7.158;2023-07-29T00:36:51;99629.00;;;24.60
13570;BMP180;6856;51.460;7.158;2023-07-29T00:39:25;99623.00;;;24.60
13570;BMP180;6856;51.460;7.158;2023-07-29T00:42:01;99623.00;;;24.50
13570;BMP180;6856;51.460;7.158;2023-07-29T00:44:34;99619.00;;;24.50
13570;BMP180;6856;51.460;7.158;2023-07-29T00:47:09;99619.00;;;24.60
13570;BMP180;6856;51.460;7.158;2023-07-29T00:49:45;99619.00;;;24.60
13570;BMP180;6856;51.460;7.158;2023-07-29T00:52:18;99619.00;;;24.60
13570;BMP180;6856;51.460;7.158;2023-07-29T00:54:52;99618.00;;;24.60
13570;BMP180;6856;51.460;7.158;2023-07-29T00:57:30;99621.00;;;24.60
13570;BMP180;6856;51.460;7.158;2023-07-29T01:00:07;99616.00;;;24.60
13570;BMP180;6856;51.460;7.158;2023-07-29T01:02:41;99612.00;;;24.60
13570;BMP180;6856;51.460;7.158;2023-07-29T01:05:17;99603.00;;;24.60
13570;BMP180;6856;51.460;7.158;2023-07-29T01:08:01;99600.00;;;24.70
13570;BMP180;6856;51.460;7.158;2023-07-29T01:10:46;99597.00;;;24.70
13570;BMP180;6856;51.460;7.158;2023-07-29T01:13:36;99594.00;;;24.70
13570;BMP180;6856;51.460;7.158;2023-07-29T01:16:17;99589.00;;;24.70
13570;BMP180;6856;51.460;7.158;2023-07-29T01:18:54;99597.00;;;24.70
13570;BMP180;6856;51.460;7.158;2023-07-29T01:21:29;99596.00;;;24.70
13570;BMP180;6856;51.460;7.158;2023-07-29T01:24:05;99598.00;;;24.70
13570;BMP180;6856;51.460;7.158;2023-07-29T01:26:38;99593.00;;;24.60
13570;BMP180;6856;51.460;7.158;2023-07-29T01:29:12;99594.00;;;24.70
13570;BMP180;6856;51.460;7.158;2023-07-29T01:31:54;99594.00;;;24.60
13570;BMP180;6856;51.460;7.158;2023-07-29T01:34:36;99595.00;;;24.60
13570;BMP180;6856;51.460;7.158;2023-07-29T01:37:24;99602.00;;;24.60
13570;BMP180;6856;51.460;7.158;2023-07-29T01:40:01;99598.00;;;24.60
13570;BMP180;6856;51.460;7.158;2023-07-29T01:42:35;99590.00;;;24.60
13570;BMP180;6856;51.460;7.158;2023-07-29T01:45:09;99584.00;;;24.60
13570;BMP180;6856;51.460;7.158;2023-07-29T01:47:43;99576.00;;;24.60
13570;BMP180;6856;51.460;7.158;2023-07-29T01:50:18;99583.00;;;24.60
13570;BMP180;6856;51.460;7.158;2023-07-29T01:52:51;99584.00;;;24.60
13570;BMP180;6856;51.460;7.158;2023-07-29T01:55:27;99582.00;;;24.60
13570;BMP180;6856;51.460;7.158;2023-07-29T01:58:00;99582.00;;;24.60
13570;BMP180;6856;51.460;7.158;2023-07-29T02:00:37;99582.00;;;24.60
13570;BMP180;6856;51.460;7.158;2023-07-29T02:03:11;99583.00;;;24.60
13570;BMP180;6856;51.460;7.158;2023-07-29T02:05:45;99575.00;;;24.50
13570;BMP180;6856;51.460;7.158;2023-07-29T02:08:19;99583.00;;;24.50
13570;BMP180;6856;51.460;7.158;2023-07-29T02:10:54;99581.00;;;24.50
13570;BMP180;6856;51.460;7.158;2023-07-29T02:13:28;99574.00;;;24.50
13570;BMP180;6856;51.460;7.158;2023-07-29T02:16:01;99578.00;;;24.50
13570;BMP180;6856;51.460;7.158;2023-07-29T02:18:35;99572.00;;;24.50
13570;BMP180;6856;51.460;7.158;2023-07-29T02:21:09;99556.00;;;24.50
13570;BMP180;6856;51.460;7.158;2023-07-29T02:23:43;99555.00;;;24.50
13570;BMP180;6856;51.460;7.158;2023-07-29T02:26:18;99554.00;;;24.50
13570;BMP180;6856;51.460;7.158;2023-07-29T02:28:52;99548.00;;;24.50
13570;BMP180;6856;51.460;7.158;2023-07-29T02:31:26;99544.00;;;24.50
13570;BMP180;6856;51.460;7.158;2023-07-29T02:33:59;99538.00;;;24.50
13570;BMP180;6856;51.460;7.158;2023-07-29T02:36:33;99526.00;;;24.50
13570;BMP180;6856;51.460;7.158;2023-07-29T02:39:09;99531.00;;;24.40
13570;BMP180;6856;51.460;7.158;2023-07-29T02:41:45;99538.00;;;24.40
13570;BMP180;6856;51.460;7.158;2023-07-29T02:44:18;99541.00;;;24.40
13570;BMP180;6856;51.460;7.158;2023-07-29T02:46:52;99548.00;;;24.40
13570;BMP180;6856;51.460;7.158;2023-07-29T02:49:28;99546.00;;;24.40
13570;BMP180;6856;51.460;7.158;2023-07-29T02:52:02;99551.00;;;24.40
13570;BMP180;6856;51.460;7.158;2023-07-29T02:54:36;99544.00;;;24.40
13570;BMP180;6856;51.460;7.158;2023-07-29T02:57:13;99549.00;;;24.40
13570;BMP180;6856;51.460;7.158;2023-07-29T02:59:47;99549.00;;;24.40
13570;BMP180;6856;51.460;7.158;2023-07-29T03:02:21;99538.00;;;24.40
13570;BMP180;6856;51.460;7.158;2023-07-29T03:04:55;99556.00;;;24.40
13570;BMP180;6856;51.460;7.158;2023-07-29T03:07:29;99548.00;;;24.30
13570;BMP180;6856;51.460;7.158;2023-07-29T03:10:02;99560.00;;;24.30
13570;BMP180;6856;51.460;7.158;2023-07-29T03:12:38;99563.00;;;24.30
13570;BMP180;6856;51.460;7.158;2023-07-29T03:15:12;99573.00;;;24.30
13570;BMP180;6856;51.460;7.158;2023-07-29T03:17:45;99570.00;;;24.30
13570;BMP180;6856;51.460;7.158;2023-07-29T03:20:20;99567.00;;;24.30
13570;BMP180;6856;51.460;7.158;2023-07-29T03:22:53;99567.00;;;24.30
13570;BMP180;6856;51.460;7.158;2023-07-29T03:25:27;99554.00;;;24.30
13570;BMP180;6856;51.460;7.158;2023-07-29T03:28:03;99561.00;;;24.30
13570;BMP180;6856;51.460;7.158;2023-07-29T03:30:37;99563.00;;;24.30
13570;BMP180;6856;51.460;7.158;2023-07-29T03:33:11;99564.00;;;24.20
13570;BMP180;6856;51.460;7.158;2023-07-29T03:35:44;99567.00;;;24.30
13570;BMP180;6856;51.460;7.158;2023-07-29T03:38:18;99562.00;;;24.30
13570;BMP180;6856;51.460;7.158;2023-07-29T03:40:52;99553.00;;;24.30
13570;BMP180;6856;51.460;7.158;2023-07-29T03:43:28;99556.00;;;24.30
13570;BMP180;6856;51.460;7.158;2023-07-29T03:46:04;99555.00;;;24.30
13570;BMP180;6856;51.460;7.158;2023-07-29T03:48:43;99562.00;;;24.30
13570;BMP180;6856;51.460;7.158;2023-07-29T03:51:16;99548.00;;;24.30
13570;BMP180;6856;51.460;7.158;2023-07-29T03:53:50;99548.00;;;24.30
13570;BMP180;6856;51.460;7.158;2023-07-29T03:56:24;99553.00;;;24.30
13570;BMP180;6856;51.460;7.158;2023-07-29T03:59:05;99550.00;;;24.30
13570;BMP180;6856;51.460;7.158;2023-07-29T04:01:38;99551.00;;;24.30
13570;BMP180;6856;51.460;7.158;2023-07-29T04:04:12;99541.00;;;24.30
13570;BMP180;6856;51.460;7.158;2023-07-29T04:06:46;99540.00;;;24.30
13570;BMP180;6856;51.460;7.158;2023-07-29T04:09:19;99543.00;;;24.30
13570;BMP180;6856;51.460;7.158;2023-07-29T04:11:53;99530.00;;;24.30
13570;BMP180;6856;51.460;7.158;2023-07-29T04:14:28;99524.00;;;24.30
13570;BMP180;6856;51.460;7.158;2023-07-29T04:17:03;99534.00;;;24.30
13570;BMP180;6856;51.460;7.158;2023-07-29T04:19:37;99530.00;;;24.30
13570;BMP180;6856;51.460;7.158;2023-07-29T04:22:10;99537.00;;;24.30
13570;BMP180;6856;51.460;7.158;2023-07-29T04:24:44;99539.00;;;24.30
13570;BMP180;6856;51.460;7.158;2023-07-29T04:27:18;99547.00;;;24.30
13570;BMP180;6856;51.460;7.158;2023-07-29T04:29:53;99544.00;;;24.30
13570;BMP180;6856;51.460;7.158;2023-07-29T04:32:27;99541.00;;;24.30
13570;BMP180;6856;51.460;7.158;2023-07-29T04:35:01;99533.00;;;24.30
13570;BMP180;6856;51.460;7.158;2023-07-29T04:37:35;99545.00;;;24.30
13570;BMP180;6856;51.460;7.158;2023-07-29T04:40:09;99555.00;;;24.30
13570;BMP180;6856;51.460;7.158;2023-07-29T04:42:43;99566.00;;;24.30
13570;BMP180;6856;51.460;7.158;2023-07-29T04:45:18;99570.00;;;24.20
13570;BMP180;6856;51.460;7.158;2023-07-29T04:47:52;99573.00;;;24.20
13570;BMP180;6856;51.460;7.158;2023-07-29T04:50:25;99575.00;;;24.20
13570;BMP180;6856;51.460;7.158;2023-07-29T04:52:59;99566.00;;;24.20
13570;BMP180;6856;51.460;7.158;2023-07-29T04:55:33;99586.00;;;24.10
13570;BMP180;6856;51.460;7.158;2023-07-29T04:58:07;99589.00;;;24.10
13570;BMP180;6856;51.460;7.158;2023-07-29T05:00:42;99578.00;;;24.10
13570;BMP180;6856;51.460;7.158;2023-07-29T05:03:16;99590.00;;;24.10
13570;BMP180;6856;51.460;7.158;2023-07-29T05:05:49;99597.00;;;24.00
13570;BMP180;6856;51.460;7.158;2023-07-29T05:08:25;99597.00;;;24.00
13570;BMP180;6856;51.460;7.158;2023-07-29T05:10:59;99599.00;;;24.00
13570;BMP180;6856;51.460;7.158;2023-07-29T05:13:33;99596.00;;;23.90
13570;BMP180;6856;51.460;7.158;2023-07-29T05:16:08;99590.00;;;23.90
13570;BMP180;6856;51.460;7.158;2023-07-29T05:18:42;99580.00;;;23.90
13570;BMP180;6856;51.460;7.158;2023-07-29T05:21:15;99567.00;;;23.90
13570;BMP180;6856;51.460;7.158;2023-07-29T05:23:49;99557.00;;;23.90
13570;BMP180;6856;51.460;7.158;2023-07-29T05:26:25;99549.00;;;23.80
13570;BMP180;6856;51.460;7.158;2023-07-29T05:28:59;99539.00;;;23.80
13570;BMP180;6856;51.460;7.158;2023-07-29T05:31:34;99540.00;;;23.80
13570;BMP180;6856;51.460;7.158;2023-07-29T05:34:08;99528.00;;;23.80
13570;BMP180;6856;51.460;7.158;2023-07-29T05:36:41;99539.00;;;23.80
13570;BMP180;6856;51.460;7.158;2023-07-29T05:39:15;99550.00;;;23.80
13570;BMP180;6856;51.460;7.158;2023-07-29T05:41:49;99561.00;;;23.80
13570;BMP180;6856;51.460;7.158;2023-07-29T05:44:23;99567.00;;;23.80
13570;BMP180;6856;51.460;7.158;2023-07-29T05:46:58;99583.00;;;23.80
13570;BMP180;6856;51.460;7.158;2023-07-29T05:49:32;99592.00;;;23.80
13570;BMP180;6856;51.460;7.158;2023-07-29T05:52:06;99592.00;;;23.80
13570;BMP180;6856;51.460;7.158;2023-07-29T05:54:41;99592.00;;;23.90
13570;BMP180;6856;51.460;7.158;2023-07-29T05:57:15;99589.00;;;23.90
13570;BMP180;6856;51.460;7.158;2023-07-29T05:59:49;99620.00;;;23.90
13570;BMP180;6856;51.460;7.158;2023-07-29T06:02:25;99618.00;;;23.80
13570;BMP180;6856;51.460;7.158;2023-07-29T06:04:59;99615.00;;;23.80
13570;BMP180;6856;51.460;7.158;2023-07-29T06:07:35;99615.00;;;23.70
13570;BMP180;6856;51.460;7.158;2023-07-29T06:10:09;99625.00;;;23.70
13570;BMP180;6856;51.460;7.158;2023-07-29T06:12:44;99634.00;;;23.60
13570;BMP180;6856;51.460;7.158;2023-07-29T06:15:18;99623.00;;;23.60
13570;BMP180;6856;51.460;7.158;2023-07-29T06:17:56;99634.00;;;23.60
13570;BMP180;6856;51.460;7.158;2023-07-29T06:20:32;99630.00;;;23.60
13570;BMP180;6856;51.460;7.158;2023-07-29T06:23:05;99632.00;;;23.50
13570;BMP180;6856;51.460;7.158;2023-07-29T06:25:39;99634.00;;;23.50
13570;BMP180;6856;51.460;7.158;2023-07-29T06:28:13;99651.00;;;23.50
13570;BMP180;6856;51.460;7.158;2023-07-29T06:30:46;99660.00;;;23.50
13570;BMP180;6856;51.460;7.158;2023-07-29T06:33:22;99658.00;;;23.50
13570;BMP180;6856;51.460;7.158;2023-07-29T06:35:56;99656.00;;;23.40
13570;BMP180;6856;51.460;7.158;2023-07-29T06:38:30;99655.00;;;23.40
13570;BMP180;6856;51.460;7.158;2023-07-29T06:41:05;99667.00;;;23.40
13570;BMP180;6856;51.460;7.158;2023-07-29T06:43:39;99663.00;;;23.40
13570;BMP180;6856;51.460;7.158;2023-07-29T06:46:12;99658.00;;;23.30
13570;BMP180;6856;51.460;7.158;2023-07-29T06:48:47;99661.00;;;23.30
13570;BMP180;6856;51.460;7.158;2023-07-29T06:51:21;99663.00;;;23.30
13570;BMP180;6856;51.460;7.158;2023-07-29T06:53:54;99668.00;;;23.30
13570;BMP180;6856;51.460;7.158;2023-07-29T06:56:28;99666.00;;;23.30
13570;BMP180;6856;51.460;7.158;2023-07-29T06:59:01;99670.00;;;23.30
13570;BMP180;6856;51.460;7.158;2023-07-29T07:01:35;99665.00;;;23.20
13570;BMP180;6856;51.460;7.158;2023-07-29T07:04:10;99659.00;;;23.20
13570;BMP180;6856;51.460;7.158;2023-07-29T07:06:44;99657.00;;;23.20
13570;BMP180;6856;51.460;7.158;2023-07-29T07:09:18;99655.00;;;23.20
13570;BMP180;6856;51.460;7.158;2023-07-29T07:11:51;99656.00;;;23.20
13570;BMP180;6856;51.460;7.158;2023-07-29T07:14:25;99659.00;;;23.20
13570;BMP180;6856;51.460;7.158;2023-07-29T07:16:59;99662.00;;;23.20
13570;BMP180;6856;51.460;7.158;2023-07-29T07:19:34;99644.00;;;23.20
13570;BMP180;6856;51.460;7.158;2023-07-29T07:22:07;99663.00;;;23.20
13570;BMP180;6856;51.460;7.158;2023-07-29T07:24:41;99670.00;;;23.20
13570;BMP180;6856;51.460;7.158;2023-07-29T07:27:16;99668.00;;;23.20
13570;BMP180;6856;51.460;7.158;2023-07-29T07:29:50;99667.00;;;23.30
13570;BMP180;6856;51.460;7.158;2023-07-29T07:32:25;99671.00;;;23.30
13570;BMP180;6856;51.460;7.158;2023-07-29T07:35:01;99668.00;;;23.40
13570;BMP180;6856;51.460;7.158;2023-07-29T07:37:36;99666.00;;;23.40
13570;BMP180;6856;51.460;7.158;2023-07-29T07:40:10;99661.00;;;23.50
13570;BMP180;6856;51.460;7.158;2023-07-29T07:42:44;99679.00;;;23.50
13570;BMP180;6856;51.460;7.158;2023-07-29T07:45:18;99675.00;;;23.60
13570;BMP180;6856;51.460;7.158;2023-07-29T07:47:52;99665.00;;;23.60
13570;BMP180;6856;51.460;7.158;2023-07-29T07:50:30;99664.00;;;23.70
13570;BMP180;6856;51.460;7.158;2023-07-29T07:53:04;99657.00;;;23.70
13570;BMP180;6856;51.460;7.158;2023-07-29T07:55:38;99664.00;;;23.80
13570;BMP180;6856;51.460;7.158;2023-07-29T07:58:12;99674.00;;;23.80
13570;BMP180;6856;51.460;7.158;2023-07-29T08:00:46;99663.00;;;23.90
13570;BMP180;6856;51.460;7.158;2023-07-29T08:03:20;99668.00;;;23.90
13570;BMP180;6856;51.460;7.158;2023-07-29T08:05:55;99669.00;;;23.90
13570;BMP180;6856;51.460;7.158;2023-07-29T08:08:29;99661.00;;;23.90
13570;BMP180;6856;51.460;7.158;2023-07-29T08:11:03;99670.00;;;24.00
13570;BMP180;6856;51.460;7.158;2023-07-29T08:13:40;99676.00;;;24.00
13570;BMP180;6856;51.460;7.158;2023-07-29T08:16:15;99670.00;;;24.00
13570;BMP180;6856;51.460;7.158;2023-07-29T08:18:49;99670.00;;;24.10
13570;BMP180;6856;51.460;7.158;2023-07-29T08:21:23;99655.00;;;24.10
13570;BMP180;6856;51.460;7.158;2023-07-29T08:23:58;99665.00;;;24.20
13570;BMP180;6856;51.460;7.158;2023-07-29T08:26:31;99670.00;;;24.30
13570;BMP180;6856;51.460;7.158;2023-07-29T08:29:05;99683.00;;;24.30
13570;BMP180;6856;51.460;7.158;2023-07-29T08:31:39;99672.00;;;24.40
13570;BMP180;6856;51.460;7.158;2023-07-29T08:34:13;99665.00;;;24.40
13570;BMP180;6856;51.460;7.158;2023-07-29T08:36:48;99659.00;;;24.50
13570;BMP180;6856;51.460;7.158;2023-07-29T08:39:21;99669.00;;;24.60
13570;BMP180;6856;51.460;7.158;2023-07-29T08:42:02;99678.00;;;24.60
13570;BMP180;6856;51.460;7.158;2023-07-29T08:44:42;99673.00;;;24.70
13570;BMP180;6856;51.460;7.158;2023-07-29T08:47:18;99675.00;;;24.80
13570;BMP180;6856;51.460;7.158;2023-07-29T08:49:53;99669.00;;;24.90
13570;BMP180;6856;51.460;7.158;2023-07-29T08:52:29;99672.00;;;24.90
13570;BMP180;6856;51.460;7.158;2023-07-29T08:55:05;99671.00;;;25.00
13570;BMP180;6856;51.460;7.158;2023-07-29T08:57:39;99663.00;;;25.10
13570;BMP180;6856;51.460;7.158;2023-07-29T09:00:13;99666.00;;;25.20
13570;BMP180;6856;51.460;7.158;2023-07-29T09:02:51;99664.00;;;25.20
13570;BMP180;6856;51.460;7.158;2023-07-29T09:05:25;99667.00;;;25.30
13570;BMP180;6856;51.460;7.158;2023-07-29T09:08:03;99647.00;;;25.30
13570;BMP180;6856;51.460;7.158;2023-07-29T09:10:37;99661.00;;;25.30
13570;BMP180;6856;51.460;7.158;2023-07-29T09:13:11;99658.00;;;25.40
13570;BMP180;6856;51.460;7.158;2023-07-29T09:15:46;99653.00;;;25.40
13570;BMP180;6856;51.460;7.158;2023-07-29T09:18:21;99647.00;;;25.50
13570;BMP180;6856;51.460;7.158;2023-07-29T09:20:59;99661.00;;;25.60
13570;BMP180;6856;51.460;7.158;2023-07-29T09:23:41;99680.00;;;25.60
13570;BMP180;6856;51.460;7.158;2023-07-29T09:26:22;99680.00;;;25.60
13570;BMP180;6856;51.460;7.158;2023-07-29T09:28:58;99672.00;;;25.60
13570;BMP180;6856;51.460;7.158;2023-07-29T09:31:33;99674.00;;;25.60
13570;BMP180;6856;51.460;7.158;2023-07-29T09:34:07;99675.00;;;25.70
13570;BMP180;6856;51.460;7.158;2023-07-29T09:36:41;99672.00;;;25.70
13570;BMP180;6856;51.460;7.158;2023-07-29T09:39:16;99679.00;;;25.70
13570;BMP180;6856;51.460;7.158;2023-07-29T09:41:51;99665.00;;;25.80
13570;BMP180;6856;51.460;7.158;2023-07-29T09:44:25;99664.00;;;25.80
13570;BMP180;6856;51.460;7.158;2023-07-29T09:46:58;99675.00;;;25.90
13570;BMP180;6856;51.460;7.158;2023-07-29T09:49:35;99676.00;;;26.00
13570;BMP180;6856;51.460;7.158;2023-07-29T09:52:11;99681.00;;;26.00
13570;BMP180;6856;51.460;7.158;2023-07-29T09:54:47;99682.00;;;26.00
13570;BMP180;6856;51.460;7.158;2023-07-29T09:57:21;99688.00;;;26.00
13570;BMP180;6856;51.460;7.158;2023-07-29T09:59:55;99686.00;;;26.00
13570;BMP180;6856;51.460;7.158;2023-07-29T10:02:29;99683.00;;;26.00
13570;BMP180;6856;51.460;7.158;2023-07-29T10:05:05;99694.00;;;26.00
13570;BMP180;6856;51.460;7.158;2023-07-29T10:07:41;99696.00;;;26.00
13570;BMP180;6856;51.460;7.158;2023-07-29T10:10:17;99699.00;;;25.90
13570;BMP180;6856;51.460;7.158;2023-07-29T10:12:51;99694.00;;;25.90
13570;BMP180;6856;51.460;7.158;2023-07-29T10:15:26;99689.00;;;25.90
13570;BMP180;6856;51.460;7.158;2023-07-29T10:18:02;99683.00;;;25.80
13570;BMP180;6856;51.460;7.158;2023-07-29T10:20:37;99686.00;;;25.90
13570;BMP180;6856;51.460;7.158;2023-07-29T10:23:14;99676.00;;;25.90
13570;BMP180;6856;51.460;7.158;2023-07-29T10:25:58;99687.00;;;25.90
13570;BMP180;6856;51.460;7.158;2023-07-29T10:28:39;99693.00;;;26.00
13570;BMP180;6856;51.460;7.158;2023-07-29T10:31:15;99689.00;;;26.10
13570;BMP180;6856;51.460;7.158;2023-07-29T10:33:50;99689.00;;;26.20
13570;BMP180;6856;51.460;7.158;2023-07-29T10:36:25;99688.00;;;26.20
13570;BMP180;6856;51.460;7.158;2023-07-29T10:39:00;99691.00;;;26.30
13570;BMP180;6856;51.460;7.158;2023-07-29T10:41:57;99677.00;;;26.40
13570;BMP180;6856;51.460;7.158;2023-07-29T10:44:49;99685.00;;;26.50
13570;BMP180;6856;51.460;7.158;2023-07-29T10:47:25;99685.00;;;26.60
13570;BMP180;6856;51.460;7.158;2023-07-29T10:49:59;99682.00;;;26.60
13570;BMP180;6856;51.460;7.158;2023-07-29T10:52:42;99679.00;;;26.70
13570;BMP180;6856;51.460;7.158;2023-07-29T10:55:26;99676.00;;;26.80
13570;BMP180;6856;51.460;7.158;2023-07-29T10:58:12;99682.00;;;26.80
13570;BMP180;6856;51.460;7.158;2023-07-29T11:00:49;99678.00;;;26.80
13570;BMP180;6856;51.460;7.158;2023-07-29T11:03:22;99675.00;;;26.90
13570;BMP180;6856;51.460;7.158;2023-07-29T11:06:04;99682.00;;;26.90
13570;BMP180;6856;51.460;7.158;2023-07-29T11:08:40;99677.00;;;26.90
13570;BMP180;6856;51.460;7.158;2023-07-29T11:11:14;99677.00;;;26.90
13570;BMP180;6856;51.460;7.158;2023-07-29T11:13:52;99671.00;;;26.90
13570;BMP180;6856;51.460;7.158;2023-07-29T11:16:26;99671.00;;;27.00
13570;BMP180;6856;51.460;7.158;2023-07-29T11:19:01;99662.00;;;27.00
13570;BMP180;6856;51.460;7.158;2023-07-29T11:21:36;99669.00;;;27.00
13570;BMP180;6856;51.460;7.158;2023-07-29T11:24:10;99663.00;;;27.00
13570;BMP180;6856;51.460;7.158;2023-07-29T11:26:47;99660.00;;;27.00
13570;BMP180;6856;51.460;7.158;2023-07-29T11:29:22;99662.00;;;27.00
13570;BMP180;6856;51.460;7.158;2023-07-29T11:31:56;99670.00;;;27.10
13570;BMP180;6856;51.460;7.158;2023-07-29T11:34:32;99669.00;;;27.10
13570;BMP180;6856;51.460;7.158;2023-07-29T11:37:06;99664.00;;;27.10
13570;BMP180;6856;51.460;7.158;2023-07-29T11:39:40;99670.00;;;27.20
13570;BMP180;6856;51.460;7.158;2023-07-29T11:42:14;99669.00;;;27.20
13570;BMP180;6856;51.460;7.158;2023-07-29T11:44:49;99672.00;;;27.10
13570;BMP180;6856;51.460;7.158;2023-07-29T11:47:23;99665.00;;;27.10
13570;BMP180;6856;51.460;7.158;2023-07-29T11:49:59;99672.00;;;27.10
13570;BMP180;6856;51.460;7.158;2023-07-29T11:52:34;99655.00;;;27.10
13570;BMP180;6856;51.460;7.158;2023-07-29T11:55:09;99670.00;;;27.10
13570;BMP180;6856;51.460;7.158;2023-07-29T11:57:43;99665.00;;;27.10
13570;BMP180;6856;51.460;7.158;2023-07-29T12:00:18;99667.00;;;27.10
13570;BMP180;6856;51.460;7.158;2023-07-29T12:02:54;99667.00;;;27.10
13570;BMP180;6856;51.460;7.158;2023-07-29T12:05:29;99654.00;;;27.10
13570;BMP180;6856;51.460;7.158;2023-07-29T12:08:04;99659.00;;;27.00
13570;BMP180;6856;51.460;7.158;2023-07-29T12:10:38;99666.00;;;27.00
13570;BMP180;6856;51.460;7.158;2023-07-29T12:13:14;99655.00;;;27.00
13570;BMP180;6856;51.460;7.158;2023-07-29T12:15:50;99652.00;;;27.00
13570;BMP180;6856;51.460;7.158;2023-07-29T12:18:30;99655.00;;;27.10
13570;BMP180;6856;51.460;7.158;2023-07-29T12:21:04;99654.00;;;27.10
13570;BMP180;6856;51.460;7.158;2023-07-29T12:23:38;99643.00;;;27.20
13570;BMP180;6856;51.460;7.158;2023-07-29T12:26:12;99643.00;;;27.20
13570;BMP180;6856;51.460;7.158;2023-07-29T12:28:46;99653.00;;;27.20
13570;BMP180;6856;51.460;7.158;2023-07-29T12:31:30;99654.00;;;27.20
13570;BMP180;6856;51.460;7.158;2023-07-29T12:34:04;99659.00;;;27.20
13570;BMP180;6856;51.460;7.158;2023-07-29T12:36:44;99655.00;;;27.30
13570;BMP180;6856;51.460;7.158;2023-07-29T12:39:20;99659.00;;;27.30
13570;BMP180;6856;51.460;7.158;2023-07-29T12:41:55;99655.00;;;27.30
13570;BMP180;6856;51.460;7.158;2023-07-29T12:44:31;99661.00;;;27.30
13570;BMP180;6856;51.460;7.158;2023-07-29T12:47:08;99659.00;;;27.40
13570;BMP180;6856;51.460;7.158;2023-07-29T12:49:43;99671.00;;;27.40
13570;BMP180;6856;51.460;7.158;2023-07-29T12:52:17;99671.00;;;27.50
13570;BMP180;6856;51.460;7.158;2023-07-29T12:54:51;99676.00;;;27.50
13570;BMP180;6856;51.460;7.158;2023-07-29T12:57:24;99673.00;;;27.50
13570;BMP180;6856;51.460;7.158;2023-07-29T13:00:01;99657.00;;;27.40
13570;BMP180;6856;51.460;7.158;2023-07-29T13:02:37;99654.00;;;27.40
13570;BMP180;6856;51.460;7.158;2023-07-29T13:05:13;99654.00;;;27.50
13570;BMP180;6856;51.460;7.158;2023-07-29T13:07:50;99661.00;;;27.40
13570;BMP180;6856;51.460;7.158;2023-07-29T13:10:23;99662.00;;;27.50
13570;BMP180;6856;51.460;7.158;2023-07-29T13:12:58;99662.00;;;27.50
13570;BMP180;6856;51.460;7.158;2023-07-29T13:15:32;99666.00;;;27.60
13570;BMP180;6856;51.460;7.158;2023-07-29T13:18:07;99669.00;;;27.60
13570;BMP180;6856;51.460;7.158;2023-07-29T13:20:41;99664.00;;;27.70
13570;BMP180;6856;51.460;7.158;2023-07-29T13:23:16;99661.00;;;27.70
13570;BMP180;6856;51.460;7.158;2023-07-29T13:25:50;99661.00;;;27.80
13570;BMP180;6856;51.460;7.158;2023-07-29T13:28:24;99660.00;;;27.80
13570;BMP180;6856;51.460;7.158;2023-07-29T13:30:58;99654.00;;;27.80
13570;BMP180;6856;51.460;7.158;2023-07-29T13:33:33;99658.00;;;27.80
13570;BMP180;6856;51.460;7.158;2023-07-29T13:36:07;99661.00;;;27.80
13570;BMP180;6856;51.460;7.158;2023-07-29T13:38:41;99654.00;;;27.80
13570;BMP180;6856;51.460;7.158;2023-07-29T13:41:16;99652.00;;;27.80
13570;BMP180;6856;51.460;7.158;2023-07-29T13:43:49;99652.00;;;27.80
13570;BMP180;6856;51.460;7.158;2023-07-29T13:46:23;99650.00;;;27.90
13570;BMP180;6856;51.460;7.158;2023-07-29T13:48:58;99650.00;;;27.90
13570;BMP180;6856;51.460;7.158;2023-07-29T13:51:32;99648.00;;;27.80
13570;BMP180;6856;51.460;7.158;2023-07-29T13:54:06;99657.00;;;27.80
13570;BMP180;6856;51.460;7.158;2023-07-29T13:56:40;99659.00;;;27.70
13570;BMP180;6856;51.460;7.158;2023-07-29T13:59:14;99661.00;;;27.70
13570;BMP180;6856;51.460;7.158;2023-07-29T14:01:47;99664.00;;;27.70
13570;BMP180;6856;51.460;7.158;2023-07-29T14:04:23;99684.00;;;27.60
13570;BMP180;6856;51.460;7.158;2023-07-29T14:06:57;99679.00;;;27.60
13570;BMP180;6856;51.460;7.158;2023-07-29T14:09:31;99684.00;;;27.60
13570;BMP180;6856;51.460;7.158;2023-07-29T14:12:05;99709.00;;;27.50
13570;BMP180;6856;51.460;7.158;2023-07-29T14:14:39;99711.00;;;27.40
13570;BMP180;6856;51.460;7.158;2023-07-29T14:17:12;99717.00;;;27.40
13570;BMP180;6856;51.460;7.158;2023-07-29T14:19:48;99723.00;;;27.30
13570;BMP180;6856;51.460;7.158;2023-07-29T14:22:22;99717.00;;;27.20
13570;BMP180;6856;51.460;7.158;2023-07-29T14:24:55;99712.00;;;27.00
13570;BMP180;6856;51.460;7.158;2023-07-29T14:27:32;99725.00;;;27.00
13570;BMP180;6856;51.460;7.158;2023-07-29T14:30:07;99739.00;;;26.90
13570;BMP180;6856;51.460;7.158;2023-07-29T14:32:42;99740.00;;;26.90
13570;BMP180;6856;51.460;7.158;2023-07-29T14:35:17;99762.00;;;26.80
13570;BMP180;6856;51.460;7.158;2023-07-29T14:37:51;99773.00;;;26.70
13570;BMP180;6856;51.460;7.158;2023-07-29T14:40:25;99760.00;;;26.60
13570;BMP180;6856;51.460;7.158;2023-07-29T14:42:59;99754.00;;;26.60
13570;BMP180;6856;51.460;7.158;2023-07-29T14:45:32;99755.00;;;26.50
13570;BMP180;6856;51.460;7.158;2023-07-29T14:48:06;99750.00;;;26.50
13570;BMP180;6856;51.460;7.158;2023-07-29T14:50:42;99743.00;;;26.40
13570;BMP180;6856;51.460;7.158;2023-07-29T14:53:16;99738.00;;;26.40
13570;BMP180;6856;51.460;7.158;2023-07-29T14:55:50;99738.00;;;26.40
13570;BMP180;6856;51.460;7.158;2023-07-29T14:58:24;99727.00;;;26.40
13570;BMP180;6856;51.460;7.158;2023-07-29T15:00:58;99729.00;;;26.40
13570;BMP180;6856;51.460;7.158;2023-07-29T15:03:32;99716.00;;;26.50
13570;BMP180;6856;51.460;7.158;2023-07-29T15:06:07;99729.00;;;26.50